Time;durP1;ratioP1;P1;durP2;ratioP2;P2;SDS_P1;SDS_P2;PMS_P1;PMS_P2;Temp;Humidity;BMP_temperature;BMP_pressure;BME280_temperature;BME280_humidity;BME280_pressure;Samples;Min_cycle;Max_cycle;Signal;HPM_P1;HPM_P2
2021/11/10 00:01:59;;;;;;;3.60;2.33;;;;;;;-140.79;100.00;63287.88;4991234;28;20029;-73
2021/11/10 00:04:24;;;;;;;3.47;1.95;;;;;;;-140.79;100.00;63287.88;5024915;28;20053;-74
2021/11/10 00:06:50;;;;;;;3.42;2.28;;;;;;;-140.79;100.00;63287.88;5025267;28;20044;-72
2021/11/10 00:09:15;;;;;;;3.35;2.00;;;;;;;-140.79;100.00;63287.88;5025332;28;20063;-71
2021/11/10 00:11:41;;;;;;;3.47;2.35;;;;;;;-140.79;100.00;63287.88;5027752;28;20499;-73
2021/11/10 00:14:07;;;;;;;3.38;1.85;;;;;;;-140.79;100.00;63287.88;4996220;28;20021;-73
2021/11/10 00:16:32;;;;;;;3.53;2.10;;;;;;;-140.79;100.00;63287.88;5012044;28;20032;-73
2021/11/10 00:18:58;;;;;;;3.80;2.30;;;;;;;-140.79;100.00;63287.88;4995242;28;20070;-74
2021/11/10 00:21:24;;;;;;;3.45;2.28;;;;;;;-140.79;100.00;63287.88;4993911;28;20025;-74
2021/11/10 00:23:50;;;;;;;3.20;1.90;;;;;;;-140.79;100.00;63287.88;5026471;28;20112;-73
2021/11/10 00:26:15;;;;;;;2.97;2.08;;;;;;;-140.79;100.00;63287.88;5024565;28;20120;-71
2021/11/10 00:28:41;;;;;;;3.08;1.90;;;;;;;-140.79;100.00;63287.88;5025193;28;20108;-72
2021/11/10 00:31:07;;;;;;;3.58;2.28;;;;;;;-140.79;100.00;63287.88;5031009;28;20022;-72
2021/11/10 00:33:32;;;;;;;3.35;2.30;;;;;;;-140.79;100.00;63287.88;5012300;28;20147;-72
2021/11/10 00:35:57;;;;;;;3.08;1.95;;;;;;;-140.79;100.00;63287.88;5025522;28;20400;-72
2021/11/10 00:38:23;;;;;;;3.05;1.77;;;;;;;-140.79;100.00;63287.88;5029402;28;20032;-73
2021/11/10 00:40:48;;;;;;;3.08;2.20;;;;;;;-140.79;100.00;63287.88;5007444;28;20029;-72
2021/11/10 00:43:14;;;;;;;3.05;1.90;;;;;;;-140.79;100.00;63287.88;5008946;28;20026;-72
2021/11/10 00:45:40;;;;;;;3.55;2.30;;;;;;;-140.79;100.00;63287.88;5032120;28;20087;-72
2021/11/10 00:48:05;;;;;;;2.78;1.90;;;;;;;-140.79;100.00;63287.88;5015207;28;20025;-71
2021/11/10 00:50:32;;;;;;;2.72;1.83;;;;;;;-140.79;100.00;63287.88;5008830;28;20025;-73
2021/11/10 00:52:57;;;;;;;3.28;2.10;;;;;;;-140.79;100.00;63287.88;5028424;28;20022;-73
2021/11/10 00:55:24;;;;;;;3.33;2.20;;;;;;;-140.79;100.00;63287.88;5001006;28;20017;-72
2021/11/10 00:57:50;;;;;;;3.58;2.10;;;;;;;-140.79;100.00;63287.88;5036424;28;20029;-73
2021/11/10 01:02:56;;;;;;;3.38;2.10;;;;;;;-140.79;100.00;63287.88;5311219;22;20585;-63
2021/11/10 01:05:22;;;;;;;3.28;2.03;;;;;;;-140.79;100.00;63287.88;5022061;28;20033;-62
2021/11/10 01:07:47;;;;;;;3.05;2.25;;;;;;;-140.79;100.00;63287.88;5009076;28;20060;-63
2021/11/10 01:10:13;;;;;;;3.17;2.08;;;;;;;-140.79;100.00;63287.88;5010659;28;20021;-63
2021/11/10 01:12:39;;;;;;;3.88;2.10;;;;;;;-140.79;100.00;63287.88;5028351;28;20030;-63
2021/11/10 01:15:06;;;;;;;2.85;1.85;;;;;;;-140.79;100.00;63287.88;5028178;28;20749;-63
2021/11/10 01:17:31;;;;;;;3.40;2.15;;;;;;;-140.79;100.00;63287.88;5020271;28;20601;-63
2021/11/10 01:19:57;;;;;;;2.97;2.05;;;;;;;-140.79;100.00;63287.88;5028515;28;20037;-63
2021/11/10 01:22:22;;;;;;;3.28;2.03;;;;;;;-140.79;100.00;63287.88;5027800;28;20523;-65
2021/11/10 01:24:48;;;;;;;3.60;2.10;;;;;;;-140.79;100.00;63287.88;5028028;28;20040;-64
2021/11/10 01:27:14;;;;;;;2.85;1.90;;;;;;;-140.79;100.00;63287.88;5028610;28;20021;-64
2021/11/10 01:29:40;;;;;;;2.53;1.85;;;;;;;-140.79;100.00;63287.88;5010518;28;20553;-64
2021/11/10 01:32:06;;;;;;;3.35;2.22;;;;;;;-140.79;100.00;63287.88;5028240;28;20029;-64
2021/11/10 01:34:31;;;;;;;3.47;1.98;;;;;;;-140.79;100.00;63287.88;5027750;28;20597;-66
2021/11/10 01:36:57;;;;;;;2.92;1.75;;;;;;;-140.79;100.00;63287.88;5028955;28;20519;-62
2021/11/10 01:39:25;;;;;;;2.15;1.50;;;;;;;-140.79;100.00;63287.88;5029316;28;20028;-65
2021/11/10 01:41:52;;;;;;;3.45;2.10;;;;;;;-140.79;100.00;63287.88;5028695;28;20531;-64
2021/11/10 01:44:23;;;;;;;3.40;2.42;;;;;;;-140.79;100.00;63287.88;5029479;28;20029;-64
2021/11/10 01:46:49;;;;;;;3.08;1.90;;;;;;;-140.79;100.00;63287.88;5010871;28;20030;-64
2021/11/10 01:49:15;;;;;;;3.75;2.30;;;;;;;-140.79;100.00;63287.88;5029284;28;20052;-64
2021/11/10 01:51:49;;;;;;;3.63;2.00;;;;;;;-140.79;100.00;63287.88;5011172;28;20025;-65
2021/11/10 01:54:18;;;;;;;3.55;2.15;;;;;;;-140.79;100.00;63287.88;5010309;28;20124;-64
2021/11/10 01:56:44;;;;;;;3.25;1.88;;;;;;;-140.79;100.00;63287.88;5028040;28;20505;-65
2021/11/10 01:59:10;;;;;;;3.25;2.20;;;;;;;-140.79;100.00;63287.88;5027797;28;20030;-65
2021/11/10 02:01:43;;;;;;;3.53;1.92;;;;;;;-140.79;100.00;63287.88;5027640;28;20043;-63
2021/11/10 02:04:08;;;;;;;3.40;2.10;;;;;;;-140.79;100.00;63287.88;5043170;28;20482;-63
2021/11/10 02:06:34;;;;;;;2.88;2.00;;;;;;;-140.79;100.00;63287.88;5047784;28;20530;-63
2021/11/10 02:08:59;;;;;;;3.40;2.13;;;;;;;-140.79;100.00;63287.88;5047660;28;20028;-62
2021/11/10 02:11:25;;;;;;;3.25;2.15;;;;;;;-140.79;100.00;63287.88;5029472;28;20526;-63
2021/11/10 02:13:51;;;;;;;2.75;1.85;;;;;;;-140.79;100.00;63287.88;5046944;28;20067;-63
2021/11/10 02:16:16;;;;;;;2.75;1.92;;;;;;;-140.79;100.00;63287.88;5047747;28;20858;-63
2021/11/10 02:18:42;;;;;;;3.45;2.30;;;;;;;-140.79;100.00;63287.88;5046392;28;20051;-63
2021/11/10 02:21:09;;;;;;;2.38;1.85;;;;;;;-140.79;100.00;63287.88;5047415;28;20108;-63
2021/11/10 02:23:35;;;;;;;3.20;2.08;;;;;;;-140.79;100.00;63287.88;5047021;28;20029;-63
2021/11/10 02:26:02;;;;;;;3.13;2.10;;;;;;;-140.79;100.00;63287.88;5045924;28;20052;-63
2021/11/10 02:28:27;;;;;;;2.67;1.90;;;;;;;-140.79;100.00;63287.88;5047179;28;20095;-63
2021/11/10 02:30:54;;;;;;;3.40;1.90;;;;;;;-140.79;100.00;63287.88;5047062;28;20021;-63
2021/11/10 02:33:27;;;;;;;3.40;2.10;;;;;;;-140.79;100.00;63287.88;5046964;28;20568;-63
2021/11/10 02:36:01;;;;;;;2.63;1.70;;;;;;;-140.79;100.00;63287.88;5028902;28;20039;-63
2021/11/10 02:38:26;;;;;;;2.65;1.85;;;;;;;-140.79;100.00;63287.88;5045798;28;20186;-63
2021/11/10 02:40:53;;;;;;;2.33;1.73;;;;;;;-140.79;100.00;63287.88;5046693;28;20609;-63
2021/11/10 02:43:18;;;;;;;2.85;2.08;;;;;;;-140.79;100.00;63287.88;5045439;28;20017;-63
2021/11/10 02:45:44;;;;;;;2.92;2.10;;;;;;;-140.79;100.00;63287.88;5046539;28;20411;-63
2021/11/10 02:48:09;;;;;;;2.58;1.73;;;;;;;-140.79;100.00;63287.88;5046491;28;20445;-63
2021/11/10 02:50:35;;;;;;;2.55;1.70;;;;;;;-140.79;100.00;63287.88;5046795;28;20028;-63
2021/11/10 02:53:00;;;;;;;3.47;1.75;;;;;;;-140.79;100.00;63287.88;5028512;28;20029;-62
2021/11/10 02:55:26;;;;;;;2.65;1.80;;;;;;;-140.79;100.00;63287.88;5046340;28;20481;-63
2021/11/10 02:57:53;;;;;;;3.00;1.80;;;;;;;-140.79;100.00;63287.88;5028346;28;20086;-63
2021/11/10 03:00:18;;;;;;;3.00;2.10;;;;;;;-140.79;100.00;63287.88;5045270;28;20029;-63
2021/11/10 03:02:44;;;;;;;3.05;1.70;;;;;;;-140.79;100.00;63287.88;5046070;28;20060;-63
2021/11/10 03:05:09;;;;;;;2.53;1.60;;;;;;;-140.79;100.00;63287.88;5028535;28;20548;-63
2021/11/10 03:07:35;;;;;;;2.95;1.77;;;;;;;-140.79;100.00;63287.88;5046385;28;20124;-63
2021/11/10 03:10:00;;;;;;;2.72;1.92;;;;;;;-140.79;100.00;63287.88;5046293;28;20025;-63
2021/11/10 03:12:26;;;;;;;3.05;2.00;;;;;;;-140.79;100.00;63287.88;5046067;28;20047;-63
2021/11/10 03:14:51;;;;;;;3.75;1.92;;;;;;;-140.79;100.00;63287.88;5045728;28;20113;-63
2021/11/10 03:17:17;;;;;;;2.63;1.85;;;;;;;-140.79;100.00;63287.88;5046201;28;20021;-63
2021/11/10 03:19:43;;;;;;;2.92;1.90;;;;;;;-140.79;100.00;63287.88;5044556;28;20056;-63
2021/11/10 03:22:10;;;;;;;2.72;1.80;;;;;;;-140.79;100.00;63287.88;5045858;28;20031;-63
2021/11/10 03:24:35;;;;;;;2.92;1.50;;;;;;;-140.79;100.00;63287.88;5027612;28;20025;-63
2021/11/10 03:27:01;;;;;;;2.72;1.65;;;;;;;-140.79;100.00;63287.88;5046135;28;20055;-63
2021/11/10 03:29:26;;;;;;;2.45;1.73;;;;;;;-140.79;100.00;63287.88;5045682;28;20063;-63
2021/11/10 03:31:52;;;;;;;3.75;2.00;;;;;;;-140.79;100.00;63287.88;5046056;28;20024;-63
2021/11/10 03:34:17;;;;;;;3.53;2.10;;;;;;;-140.79;100.00;63287.88;5046011;28;20449;-63
2021/11/10 03:36:43;;;;;;;2.30;1.83;;;;;;;-140.79;100.00;63287.88;5044361;28;20017;-63
2021/11/10 03:39:11;;;;;;;3.13;1.70;;;;;;;-140.79;100.00;63287.88;5027790;28;20479;-63
2021/11/10 03:41:36;;;;;;;2.33;1.60;;;;;;;-140.79;100.00;63287.88;5045724;28;20115;-63
2021/11/10 03:44:02;;;;;;;3.25;1.80;;;;;;;-140.79;100.00;63287.88;5045594;28;20028;-63
2021/11/10 03:46:27;;;;;;;2.17;1.50;;;;;;;-140.79;100.00;63287.88;5045369;28;20028;-63
2021/11/10 03:48:53;;;;;;;2.65;1.73;;;;;;;-140.79;100.00;63287.88;5045350;28;20623;-63
2021/11/10 03:51:18;;;;;;;3.00;1.90;;;;;;;-140.79;100.00;63287.88;5045725;28;20036;-63
2021/11/10 03:53:44;;;;;;;2.60;1.70;;;;;;;-140.79;100.00;63287.88;5044242;28;20147;-64
2021/11/10 03:56:09;;;;;;;2.58;1.60;;;;;;;-140.79;100.00;63287.88;5027374;28;20487;-63
2021/11/10 03:58:35;;;;;;;3.75;1.65;;;;;;;-140.79;100.00;63287.88;5045431;28;20045;-63
2021/11/10 04:01:00;;;;;;;2.22;1.58;;;;;;;-140.79;100.00;63287.88;5045162;28;20024;-64
2021/11/10 04:03:26;;;;;;;2.35;1.63;;;;;;;-140.79;100.00;63287.88;5044877;28;20389;-63
2021/11/10 04:05:53;;;;;;;2.67;1.58;;;;;;;-140.79;100.00;63287.88;5027168;28;20039;-63
2021/11/10 04:08:18;;;;;;;2.53;1.50;;;;;;;-140.79;100.00;63287.88;5045354;28;20476;-63
2021/11/10 04:10:44;;;;;;;2.60;1.63;;;;;;;-140.79;100.00;63287.88;5043714;28;20114;-63
2021/11/10 04:13:09;;;;;;;1.95;1.40;;;;;;;-140.79;100.00;63287.88;5044928;28;20115;-63
2021/11/10 04:15:35;;;;;;;2.45;1.60;;;;;;;-140.79;100.00;63287.88;5044953;28;20036;-63
2021/11/10 04:18:00;;;;;;;2.55;1.83;;;;;;;-140.79;100.00;63287.88;5044946;28;20029;-63
2021/11/10 04:20:26;;;;;;;2.67;1.70;;;;;;;-140.79;100.00;63287.88;5044838;28;20060;-63
2021/11/10 04:22:52;;;;;;;2.78;1.50;;;;;;;-140.79;100.00;63287.88;5044603;28;20473;-64
2021/11/10 04:25:17;;;;;;;2.15;1.70;;;;;;;-140.79;100.00;63287.88;5044853;28;20025;-63
2021/11/10 04:27:42;;;;;;;2.55;1.40;;;;;;;-140.79;100.00;63287.88;5044822;28;20040;-64
2021/11/10 04:30:08;;;;;;;2.20;1.48;;;;;;;-140.79;100.00;63287.88;5045115;28;20033;-64
2021/11/10 04:32:34;;;;;;;2.00;1.40;;;;;;;-140.79;100.00;63287.88;5045142;28;20407;-63
2021/11/10 04:34:59;;;;;;;1.90;1.17;;;;;;;-140.79;100.00;63287.88;5044630;28;20029;-63
2021/11/10 04:37:25;;;;;;;2.85;1.40;;;;;;;-140.79;100.00;63287.88;5044675;28;20039;-63
2021/11/10 04:39:50;;;;;;;1.90;1.40;;;;;;;-140.79;100.00;63287.88;5045040;28;20025;-63
2021/11/10 04:42:16;;;;;;;3.28;1.55;;;;;;;-140.79;100.00;63287.88;5044417;28;20028;-63
2021/11/10 04:44:41;;;;;;;1.90;1.30;;;;;;;-140.79;100.00;63287.88;5043389;28;20090;-63
2021/11/10 04:47:07;;;;;;;2.30;1.55;;;;;;;-140.79;100.00;63287.88;5044370;28;20036;-63
2021/11/10 04:49:32;;;;;;;2.45;1.50;;;;;;;-140.79;100.00;63287.88;5044603;28;20028;-63
2021/11/10 04:51:58;;;;;;;2.78;1.50;;;;;;;-140.79;100.00;63287.88;5044865;28;20059;-63
2021/11/10 04:54:29;;;;;;;2.00;1.33;;;;;;;-140.79;100.00;63287.88;5044374;28;20039;-63
2021/11/10 04:56:55;;;;;;;1.90;1.27;;;;;;;-140.79;100.00;63287.88;5044501;28;20063;-63
2021/11/10 04:59:21;;;;;;;2.50;1.55;;;;;;;-140.79;100.00;63287.88;5044430;28;20121;-63
2021/11/10 05:02:02;;;;;;;2.40;1.48;;;;;;;-140.79;100.00;63287.88;5043209;28;20036;-63
2021/11/10 05:04:28;;;;;;;2.20;1.50;;;;;;;-140.79;100.00;63287.88;5028733;28;20060;-63
2021/11/10 05:06:53;;;;;;;2.30;1.48;;;;;;;-140.79;100.00;63287.88;5044189;28;20029;-63
2021/11/10 05:09:19;;;;;;;2.50;1.60;;;;;;;-140.79;100.00;63287.88;5043376;28;20017;-63
2021/11/10 05:11:44;;;;;;;1.98;1.42;;;;;;;-140.79;100.00;63287.88;5044483;28;20080;-63
2021/11/10 05:14:11;;;;;;;2.88;1.67;;;;;;;-140.79;100.00;63287.88;5044237;28;20025;-63
2021/11/10 05:16:36;;;;;;;2.20;1.42;;;;;;;-140.79;100.00;63287.88;5043887;28;20069;-63
2021/11/10 05:19:01;;;;;;;2.13;1.40;;;;;;;-140.79;100.00;63287.88;5044285;28;20650;-63
2021/11/10 05:21:27;;;;;;;2.08;1.20;;;;;;;-140.79;100.00;63287.88;5043239;28;20067;-64
2021/11/10 05:23:52;;;;;;;2.10;1.30;;;;;;;-140.79;100.00;63287.88;5044181;28;20106;-63
2021/11/10 05:26:18;;;;;;;1.58;1.13;;;;;;;-140.79;100.00;63287.88;5026296;28;20021;-64
2021/11/10 05:28:43;;;;;;;2.03;1.20;;;;;;;-140.79;100.00;63287.88;5044389;28;20025;-63
2021/11/10 05:31:09;;;;;;;1.80;1.30;;;;;;;-140.79;100.00;63287.88;5044630;28;20139;-64
2021/11/10 05:33:34;;;;;;;2.13;1.40;;;;;;;-140.79;100.00;63287.88;5044367;28;20036;-64
2021/11/10 05:36:00;;;;;;;1.90;1.30;;;;;;;-140.79;100.00;63287.88;5044492;28;20090;-64
2021/11/10 05:38:25;;;;;;;2.03;1.40;;;;;;;-140.79;100.00;63287.88;5044189;28;20263;-64
2021/11/10 05:40:51;;;;;;;1.73;1.15;;;;;;;-140.79;100.00;63287.88;5029392;28;20096;-64
2021/11/10 05:43:16;;;;;;;2.17;1.10;;;;;;;-140.79;100.00;63287.88;5031482;28;20035;-61
2021/11/10 05:45:41;;;;;;;3.00;1.30;;;;;;;-140.79;100.00;63287.88;5043531;28;20513;-62
2021/11/10 05:48:07;;;;;;;2.88;1.40;;;;;;;-140.79;100.00;63287.88;5044078;28;20033;-62
2021/11/10 05:50:32;;;;;;;3.28;1.50;;;;;;;-140.79;100.00;63287.88;5008466;28;20025;-61
2021/11/10 05:52:58;;;;;;;3.85;1.52;;;;;;;-140.79;100.00;63287.88;5024949;28;20671;-62
2021/11/10 05:55:25;;;;;;;2.72;1.40;;;;;;;-140.79;100.00;63287.88;5047083;28;20028;-62
2021/11/10 05:57:52;;;;;;;4.45;1.40;;;;;;;-140.79;100.00;63287.88;5046379;28;20028;-61
2021/11/10 06:00:17;;;;;;;3.65;1.45;;;;;;;-140.79;100.00;63287.88;5047301;28;20070;-62
2021/11/10 06:02:43;;;;;;;3.13;1.50;;;;;;;-140.79;100.00;63287.88;5042456;28;20053;-61
2021/11/10 06:05:09;;;;;;;2.58;1.25;;;;;;;-140.79;100.00;63287.88;5026041;28;20085;-62
2021/11/10 06:07:35;;;;;;;3.17;1.40;;;;;;;-140.79;100.00;63287.88;5026700;28;20118;-62
2021/11/10 06:10:01;;;;;;;2.78;1.35;;;;;;;-140.79;100.00;63287.88;5025319;28;20506;-62
2021/11/10 06:12:26;;;;;;;2.72;1.20;;;;;;;-140.79;100.00;63287.88;5026217;28;20037;-61
2021/11/10 06:14:52;;;;;;;1.83;1.20;;;;;;;-140.79;100.00;63287.88;5026247;28;20594;-62
2021/11/10 06:17:17;;;;;;;1.65;1.10;;;;;;;-140.79;100.00;63287.88;5026457;28;20076;-61
2021/11/10 06:19:43;;;;;;;2.60;1.40;;;;;;;-140.79;100.00;63287.88;5025429;28;20029;-62
2021/11/10 06:22:08;;;;;;;1.52;0.98;;;;;;;-140.79;100.00;63287.88;5026348;28;20033;-62
2021/11/10 06:24:34;;;;;;;1.83;1.20;;;;;;;-140.79;100.00;63287.88;5009116;28;20082;-61
2021/11/10 06:26:59;;;;;;;3.95;1.90;;;;;;;-140.79;100.00;63287.88;5009417;28;20486;-61
2021/11/10 06:29:25;;;;;;;2.63;1.20;;;;;;;-140.79;100.00;63287.88;5025234;28;20021;-62
2021/11/10 06:31:51;;;;;;;2.55;1.27;;;;;;;-140.79;100.00;63287.88;5008644;28;20056;-62
2021/11/10 06:34:16;;;;;;;2.33;1.50;;;;;;;-140.79;100.00;63287.88;5008265;28;20063;-62
2021/11/10 06:36:42;;;;;;;2.05;1.10;;;;;;;-140.79;100.00;63287.88;5007998;28;20021;-62
2021/11/10 06:39:07;;;;;;;3.28;1.13;;;;;;;-140.79;100.00;63287.88;5008897;28;20036;-62
2021/11/10 06:41:33;;;;;;;2.28;1.30;;;;;;;-140.79;100.00;63287.88;5023590;28;20029;-62
2021/11/10 06:43:58;;;;;;;2.70;1.20;;;;;;;-140.79;100.00;63287.88;5024963;28;20040;-62
2021/11/10 06:46:24;;;;;;;2.03;1.05;;;;;;;-140.79;100.00;63287.88;5007652;28;20029;-61
2021/11/10 06:48:49;;;;;;;2.13;1.00;;;;;;;-140.79;100.00;63287.88;5025326;28;20485;-61
2021/11/10 06:51:15;;;;;;;2.58;1.20;;;;;;;-140.79;100.00;63287.88;5007570;28;20026;-62
2021/11/10 06:54:07;;;;;;;1.77;1.15;;;;;;;-140.79;100.00;63287.88;5025956;28;20071;-61
2021/11/10 06:56:32;;;;;;;2.97;0.90;;;;;;;-140.79;100.00;63287.88;5021047;28;20036;-61
2021/11/10 06:58:59;;;;;;;2.85;1.40;;;;;;;-140.79;100.00;63287.88;5006903;28;20032;-61
2021/11/10 07:01:26;;;;;;;1.95;1.20;;;;;;;-140.79;100.00;63287.88;5025557;28;20044;-68
2021/11/10 07:03:51;;;;;;;3.45;1.48;;;;;;;-140.79;100.00;63287.88;5024751;28;20045;-62
2021/11/10 07:06:17;;;;;;;2.15;1.13;;;;;;;-140.79;100.00;63287.88;5024222;28;20538;-62
2021/11/10 07:08:43;;;;;;;1.90;0.93;;;;;;;-140.79;100.00;63287.88;5024879;28;20029;-71
2021/11/10 07:11:08;;;;;;;2.33;1.30;;;;;;;-140.79;100.00;63287.88;5025962;28;20447;-61
2021/11/10 07:13:34;;;;;;;2.10;1.00;;;;;;;-140.79;100.00;63287.88;5025889;28;20411;-61
2021/11/10 07:15:59;;;;;;;2.15;1.40;;;;;;;-140.79;100.00;63287.88;5026318;28;20423;-62
2021/11/10 07:18:24;;;;;;;2.38;1.08;;;;;;;-140.79;100.00;63287.88;5026375;28;20488;-62
2021/11/10 07:20:50;;;;;;;1.88;1.02;;;;;;;-140.79;100.00;63287.88;5025170;28;20487;-62
2021/11/10 07:23:15;;;;;;;2.28;1.10;;;;;;;-140.79;100.00;63287.88;5025955;28;20029;-62
2021/11/10 07:25:41;;;;;;;2.25;1.20;;;;;;;-140.79;100.00;63287.88;5023272;28;20021;-62
2021/11/10 07:28:06;;;;;;;2.47;1.40;;;;;;;-140.79;100.00;63287.88;5025355;28;20030;-62
2021/11/10 07:30:32;;;;;;;1.77;1.20;;;;;;;-140.79;100.00;63287.88;5025157;28;20104;-61
2021/11/10 07:32:57;;;;;;;2.00;1.30;;;;;;;-140.79;100.00;63287.88;5024941;28;20036;-61
2021/11/10 07:35:23;;;;;;;2.25;1.38;;;;;;;-140.79;100.00;63287.88;5024974;28;20028;-61
2021/11/10 07:37:48;;;;;;;2.47;1.13;;;;;;;-140.79;100.00;63287.88;5024597;28;20072;-61
2021/11/10 07:40:15;;;;;;;1.80;1.10;;;;;;;-140.79;100.00;63287.88;5024759;28;20018;-61
2021/11/10 07:42:41;;;;;;;2.28;1.35;;;;;;;-140.79;100.00;63287.88;5024883;28;20529;-61
2021/11/10 07:45:20;;;;;;;2.22;1.27;;;;;;;-140.79;100.00;63287.88;5024692;28;20025;-61
2021/11/10 07:47:46;;;;;;;2.53;1.13;;;;;;;-140.79;100.00;63287.88;5024245;28;20064;-61
2021/11/10 07:50:20;;;;;;;2.63;1.30;;;;;;;-140.79;100.00;63287.88;5024232;28;20036;-61
2021/11/10 07:52:46;;;;;;;2.67;1.25;;;;;;;-140.79;100.00;63287.88;5006258;28;20029;-61
2021/11/10 07:55:11;;;;;;;2.20;1.10;;;;;;;-140.79;100.00;63287.88;5024345;28;20032;-61
2021/11/10 07:57:37;;;;;;;3.28;1.45;;;;;;;-140.79;100.00;63287.88;5022536;28;20025;-61
2021/11/10 08:00:14;;;;;;;2.80;1.20;;;;;;;-140.79;100.00;63287.88;5024276;28;20021;-61
2021/11/10 08:02:40;;;;;;;1.88;1.13;;;;;;;-140.79;100.00;63287.88;5006760;28;20046;-60
2021/11/10 08:05:06;;;;;;;2.40;1.55;;;;;;;-140.79;100.00;63287.88;5024447;28;20102;-60
2021/11/10 08:07:32;;;;;;;2.22;1.15;;;;;;;-140.79;100.00;63287.88;5025019;28;20044;-60
2021/11/10 08:09:57;;;;;;;1.92;1.20;;;;;;;-140.79;100.00;63287.88;5023598;28;20037;-61
2021/11/10 08:12:23;;;;;;;2.47;1.10;;;;;;;-140.79;100.00;63287.88;5024328;28;20650;-61
2021/11/10 08:14:48;;;;;;;2.22;1.20;;;;;;;-140.79;100.00;63287.88;5024892;28;20025;-60
2021/11/10 08:17:14;;;;;;;2.50;1.30;;;;;;;-140.79;100.00;63287.88;5024361;28;20071;-61
2021/11/10 08:19:40;;;;;;;2.20;1.00;;;;;;;-140.79;100.00;63287.88;5024648;28;20490;-61
2021/11/10 08:22:05;;;;;;;3.72;1.27;;;;;;;-140.79;100.00;63287.88;5024128;28;20041;-60
2021/11/10 08:24:32;;;;;;;2.05;0.98;;;;;;;-140.79;100.00;63287.88;5024080;28;20064;-61
2021/11/10 08:26:57;;;;;;;2.95;1.58;;;;;;;-140.79;100.00;63287.88;5023571;28;20033;-61
2021/11/10 08:29:23;;;;;;;2.25;1.13;;;;;;;-140.79;100.00;63287.88;5023859;28;20091;-61
2021/11/10 08:31:49;;;;;;;2.25;1.42;;;;;;;-140.79;100.00;63287.88;5007215;28;20025;-61
2021/11/10 08:34:15;;;;;;;2.28;1.08;;;;;;;-140.79;100.00;63287.88;5024038;28;20029;-61
2021/11/10 08:36:40;;;;;;;1.77;1.20;;;;;;;-140.79;100.00;63287.88;5024646;28;20480;-61
2021/11/10 08:39:06;;;;;;;2.65;1.40;;;;;;;-140.79;100.00;63287.88;5024386;28;20079;-61
2021/11/10 08:41:31;;;;;;;2.13;1.13;;;;;;;-140.79;100.00;63287.88;5023969;28;20120;-61
2021/11/10 08:43:58;;;;;;;2.72;1.35;;;;;;;-140.79;100.00;63287.88;5024332;28;20017;-61
2021/11/10 08:46:23;;;;;;;2.28;1.20;;;;;;;-140.79;100.00;63287.88;5023797;28;20079;-61
2021/11/10 08:48:49;;;;;;;2.33;1.17;;;;;;;-140.79;100.00;63287.88;5018812;28;20025;-60
2021/11/10 08:51:15;;;;;;;1.90;1.20;;;;;;;-140.79;100.00;63287.88;5005920;28;20025;-61
2021/11/10 08:53:40;;;;;;;1.90;1.15;;;;;;;-140.79;100.00;63287.88;5023946;28;20044;-61
2021/11/10 08:56:06;;;;;;;2.60;1.00;;;;;;;-140.79;100.00;63287.88;5023705;28;20040;-60
2021/11/10 08:58:31;;;;;;;2.13;1.30;;;;;;;-140.79;100.00;63287.88;4957491;28;20041;-62
2021/11/10 09:00:57;;;;;;;2.17;1.40;;;;;;;-140.79;100.00;63287.88;5021617;28;20495;-61
2021/11/10 09:03:23;;;;;;;2.67;1.23;;;;;;;-140.79;100.00;63287.88;5023274;28;20053;-61
2021/11/10 09:05:49;;;;;;;2.72;1.23;;;;;;;-140.79;100.00;63287.88;5024439;28;20511;-60
2021/11/10 09:08:15;;;;;;;2.05;1.33;;;;;;;-140.79;100.00;63287.88;5004552;28;20029;-61
2021/11/10 09:10:40;;;;;;;2.00;1.10;;;;;;;-140.79;100.00;63287.88;5024317;28;20032;-61
2021/11/10 09:13:06;;;;;;;3.10;1.30;;;;;;;-140.79;100.00;63287.88;5024169;28;20712;-61
2021/11/10 09:15:33;;;;;;;2.08;1.15;;;;;;;-140.79;100.00;63287.88;5024930;28;20033;-61
2021/11/10 09:17:59;;;;;;;2.08;1.10;;;;;;;-140.79;100.00;63287.88;5024963;28;20031;-60
2021/11/10 09:20:25;;;;;;;2.55;1.42;;;;;;;-140.79;100.00;63287.88;5023767;28;20071;-61
2021/11/10 09:22:51;;;;;;;3.10;1.50;;;;;;;-140.79;100.00;63287.88;5024414;28;20025;-61
2021/11/10 09:25:18;;;;;;;3.05;1.30;;;;;;;-140.79;100.00;63287.88;5024088;28;20040;-61
2021/11/10 09:27:43;;;;;;;2.08;1.20;;;;;;;-140.79;100.00;63287.88;5025381;28;20033;-61
2021/11/10 09:30:14;;;;;;;2.10;1.30;;;;;;;-140.79;100.00;63287.88;5028254;28;20033;-61
2021/11/10 09:32:40;;;;;;;2.50;1.33;;;;;;;-140.79;100.00;63287.88;5027961;28;20041;-61
2021/11/10 09:35:07;;;;;;;2.90;1.27;;;;;;;-140.79;100.00;63287.88;5027584;28;20026;-61
2021/11/10 09:37:33;;;;;;;3.28;1.27;;;;;;;-140.79;100.00;63287.88;5008600;28;20025;-61
2021/11/10 09:39:59;;;;;;;3.25;1.40;;;;;;;-140.79;100.00;63287.88;5025999;28;20043;-60
2021/11/10 09:42:24;;;;;;;2.78;1.30;;;;;;;-140.79;100.00;63287.88;5027736;28;20026;-61
2021/11/10 09:44:52;;;;;;;2.58;1.30;;;;;;;-140.79;100.00;63287.88;5025789;28;20146;-61
2021/11/10 09:47:19;;;;;;;2.10;1.05;;;;;;;-140.79;100.00;63287.88;5020259;28;20044;-61
2021/11/10 09:49:44;;;;;;;2.67;1.33;;;;;;;-140.79;100.00;63287.88;5027005;28;20459;-61
2021/11/10 09:52:10;;;;;;;3.08;1.55;;;;;;;-140.79;100.00;63287.88;5010017;28;20018;-61
2021/11/10 09:54:35;;;;;;;4.05;3.15;;;;;;;-140.79;100.00;63287.88;5022817;28;20025;-62
2021/11/10 09:57:01;;;;;;;26.60;24.05;;;;;;;-140.79;100.00;63287.88;5025827;28;20018;-61
2021/11/10 09:59:27;;;;;;;130.40;86.28;;;;;;;-140.79;100.00;63287.88;5026671;28;20025;-62
2021/11/10 10:01:52;;;;;;;3.10;1.50;;;;;;;-140.79;100.00;63287.88;4987439;28;20017;-60
2021/11/10 10:04:18;;;;;;;3.38;1.75;;;;;;;-140.79;100.00;63287.88;5027450;28;20079;-61
2021/11/10 10:06:44;;;;;;;2.58;1.40;;;;;;;-140.79;100.00;63287.88;5021135;28;20412;-61
2021/11/10 10:09:12;;;;;;;2.80;1.70;;;;;;;-140.79;100.00;63287.88;5000473;28;20030;-62
2021/11/10 10:11:38;;;;;;;2.92;1.40;;;;;;;-140.79;100.00;63287.88;5017324;28;20068;-62
2021/11/10 10:14:03;;;;;;;2.67;1.30;;;;;;;-140.79;100.00;63287.88;5018960;28;20036;-60
2021/11/10 10:16:29;;;;;;;2.30;1.33;;;;;;;-140.79;100.00;63287.88;5026443;28;20017;-61
2021/11/10 10:19:08;;;;;;;2.78;1.42;;;;;;;-140.79;100.00;63287.88;5026154;28;20057;-63
2021/11/10 10:21:33;;;;;;;3.08;1.50;;;;;;;-140.79;100.00;63287.88;5019220;28;20034;-60
2021/11/10 10:23:59;;;;;;;2.60;1.30;;;;;;;-140.79;100.00;63287.88;5012194;28;20079;-60
2021/11/10 10:26:26;;;;;;;2.80;1.27;;;;;;;-140.79;100.00;63287.88;5012234;28;20407;-60
2021/11/10 10:28:56;;;;;;;12.60;11.50;;;;;;;-140.79;100.00;63287.88;5001607;28;20032;-61
2021/11/10 10:31:24;;;;;;;77.07;65.28;;;;;;;-140.79;100.00;63287.88;5025858;28;20183;-61
2021/11/10 10:33:52;;;;;;;88.80;70.75;;;;;;;-140.79;100.00;63287.88;5008346;28;20454;-61
2021/11/10 10:36:25;;;;;;;187.27;114.63;;;;;;;-140.79;100.00;63287.88;5006501;28;20021;-60
2021/11/10 10:38:58;;;;;;;37.88;34.65;;;;;;;-140.79;100.00;63287.88;5025953;28;20444;-60
2021/11/10 10:41:29;;;;;;;21.92;20.30;;;;;;;-140.79;100.00;63287.88;5026153;28;20025;-62
2021/11/10 10:43:55;;;;;;;30.23;27.80;;;;;;;-140.79;100.00;63287.88;5007512;28;20057;-61
2021/11/10 10:46:26;;;;;;;123.47;81.50;;;;;;;-140.79;100.00;63287.88;5023243;28;20557;-60
2021/11/10 10:48:51;;;;;;;99.38;72.45;;;;;;;-140.79;100.00;63287.88;5025223;28;20017;-61
2021/11/10 10:51:17;;;;;;;44.55;40.60;;;;;;;-140.79;100.00;63287.88;5025732;28;20032;-61
2021/11/10 10:53:49;;;;;;;14.13;12.98;;;;;;;-140.79;100.00;63287.88;5013403;28;20034;-61
2021/11/10 10:56:26;;;;;;;61.70;54.83;;;;;;;-140.79;100.00;63287.88;5005868;28;20480;-61
2021/11/10 10:58:59;;;;;;;119.55;83.68;;;;;;;-140.79;100.00;63287.88;5005428;28;20485;-62
2021/11/10 11:01:33;;;;;;;172.35;104.90;;;;;;;-140.79;100.00;63287.88;5004434;28;20034;-62
2021/11/10 11:04:07;;;;;;;248.48;139.07;;;;;;;-140.79;100.00;63287.88;5024038;28;20515;-62
2021/11/10 11:06:39;;;;;;;120.20;82.10;;;;;;;-140.79;100.00;63287.88;5026023;28;20032;-62